KSWO/SWO METAR and TAF weather

Enter ICAO airport designator
Station Type Date Time Source
KSWO METAR 2019/08/20 08:53 UTC NOAA

KSWO 200853Z AUTO 17007KT 10SM CLR 27/21 A2998 RMK AO2 SLP136 T02720206 52000


Station Type Date Time Source
KSWO Decoded METAR 2019/08/20 08:53 UTC NOAA

STILLWATER REGIONAL AIRPORT, OK, United States (KSWO) 36-10N 97-05W 290M
Aug 20, 2019 - 04:53 AM EDT / 2019.08.20 0853 UTC
Wind: from the S (170 degrees) at 8 MPH (7 KT):0
Visibility: 10 mile(s):0
Sky conditions: clear
Temperature: 81.0 F (27.2 C)
Dew Point: 69.1 F (20.6 C)
Relative Humidity: 67%
Pressure (altimeter): 29.98 in. Hg (1015 hPa)
Pressure tendency: 0.00 inches (0.0 hPa) higher than three hours ago
ob: KSWO 200853Z AUTO 17007KT 10SM CLR 27/21 A2998 RMK AO2 SLP136 T02720206 52000
cycle: 9

Station Type Date Time Source
KSWO TAF UTC NOAA

Error!

Example: see airport list